Ashton, SD

9:33 PM CDT on June 30, 2015 (GMT -0500)
IEM | | Change Station
CLOSE
Current Station
Personal Weather Station
Location: Redfield, SD
Elevation: 1302 ft
Nearby Weather Stations

Elev 1302 ft 44.88 °N, 98.52 °W | Updated 26 minutes ago

Partly Cloudy
Partly Cloudy
72 °F
Feels Like 72 °F
N
0
Wind Variable Wind from North
Gusts 0.0 mph

Today
High -- | Low -- °F
--% Chance of Precip.
Yesterday
High -- | Low -- °F
Precip. -- in
5:50 AM 9:24 PM
Waxing Gibbous, 99% visible
Pressure 29.86 in
Visibility 6.0 miles
Clouds Few 12000 ft
Dew Point 68 °F
Humidity 88%
Rainfall in
Snow Depth Not available.
UV 0 out of 12
Pollen 5.00 out of 12
Air Quality Not available.
Flu Activity Sporadic
METAR KABR 010153Z AUTO 26003KT 6SM HZ FEW120 22/18 A2988 RMK AO2 SLP111 T02170178

More Conditions Fewer Conditions

Pressure 29.86 in
Visibility 6.0 miles
Clouds Few 12000 ft
Dew Point 68 °F
Humidity 88%
Rainfall in
Snow Depth Not available.
UV 0 out of 12
Pollen 5.00 out of 12
Air Quality Not available.
Flu Activity Sporadic
METAR KABR 010153Z AUTO 26003KT 6SM HZ FEW120 22/18 A2988 RMK AO2 SLP111 T02170178

More Conditions Fewer Conditions

10-Day Weather Forecast

×

Almanac

Astronomy

Jun. 30, 2015 Rise Set
Actual Time
Civil Twilight
Nautical Twilight
Astronomical Twilight
Moon
Length of Visible Light
Length of Day
Tomorrow will be .
, % of the Moon is Illuminated

Today's Extremes

State Highs State Lows

Community

WunderPhotos

Upload Photos

1,834,102 photos uploaded!

WunderBlogs® & News

Nearby

Air Quality

  Air Quality AQ Index Pollutant
Not available.

Snow Depth

Station Depth Elevation

Earthquake Activity

City Distance Mag. Time & Date
Minimum magnitude displayed is 2.5.

Coastal Water Temperatures

Place Temperature

Stations

Nearby Weather Stations

Station Location Temp. Windchill Dew Point Humidity Wind Precip. Elev Updated Type